Time;durP1;ratioP1;P1;durP2;ratioP2;P2;SDS_P1;SDS_P2;PMS_P1;PMS_P2;Temp;Humidity;BMP_temperature;BMP_pressure;BME280_temperature;BME280_humidity;BME280_pressure;Samples;Min_cycle;Max_cycle;Signal;HPM_P1;HPM_P2
2023/10/24 00:01:36;;;;;;;5.68;2.78;;;;;;;;;;5108120;28;20320;-38
2023/10/24 00:04:03;;;;;;;8.48;3.40;;;;;;;;;;5124058;27;20096;-34
2023/10/24 00:06:30;;;;;;;5.68;2.97;;;;;;;;;;5107408;28;20060;-41
2023/10/24 00:08:56;;;;;;;5.05;2.30;;;;;;;;;;5119619;28;20050;-39
2023/10/24 00:11:23;;;;;;;10.48;2.15;;;;;;;;;;5094726;28;20067;-40
2023/10/24 00:13:54;;;;;;;2.53;1.90;;;;;;;;;;5119538;28;20073;-44
2023/10/24 00:16:21;;;;;;;9.50;2.30;;;;;;;;;;5111357;28;20087;-43
2023/10/24 00:18:50;;;;;;;5.90;1.80;;;;;;;;;;5106683;28;20341;-35
2023/10/24 00:21:17;;;;;;;4.93;1.73;;;;;;;;;;5112591;27;20042;-38
2023/10/24 00:23:46;;;;;;;4.38;1.70;;;;;;;;;;5116567;28;20031;-36
2023/10/24 00:26:15;;;;;;;6.07;2.22;;;;;;;;;;5110498;28;20016;-38
2023/10/24 00:28:41;;;;;;;8.75;2.50;;;;;;;;;;5111914;28;20027;-39
2023/10/24 00:31:10;;;;;;;6.68;3.20;;;;;;;;;;5124861;28;20099;-42
2023/10/24 00:33:37;;;;;;;6.90;2.90;;;;;;;;;;5116712;28;20247;-39
2023/10/24 00:36:06;;;;;;;;;;;;;;;;;;5117943;27;20019;-39
2023/10/24 00:38:34;;;;;;;;;;;;;;;;;;5126408;28;19907;-44
2023/10/24 00:41:04;;;;;;;7.38;2.13;;;;;;;;;;5141922;27;19966;-39
2023/10/24 00:43:33;;;;;;;14.00;1.90;;;;;;;;;;5128811;27;20094;-38
2023/10/24 00:45:59;;;;;;;7.57;1.77;;;;;;;;;;5131161;27;19907;-37
2023/10/24 00:48:28;;;;;;;7.85;2.00;;;;;;;;;;5112936;28;20203;-38
2023/10/24 00:50:55;;;;;;;3.72;1.80;;;;;;;;;;5124983;27;20054;-39
2023/10/24 00:53:23;;;;;;;;;;;;;;;;;;5126129;28;20237;-37
2023/10/24 00:55:51;;;;;;;;;;;;;;;;;;5125886;28;19911;-40
2023/10/24 00:58:17;;;;;;;;;;;;;;;;;;5125816;28;24077;-36
2023/10/24 01:00:44;;;;;;;;;;;;;;;;;;5124828;27;25088;-39
2023/10/24 01:03:10;;;;;;;4.90;2.20;;;;;;;;;;5125240;28;19926;-35
2023/10/24 01:05:37;;;;;;;;;;;;;;;;;;5123857;28;20184;-37
2023/10/24 01:08:03;;;;;;;;;;;;;;;;;;5123662;28;19950;-47
2023/10/24 01:10:29;;;;;;;;;;;;;;;;;;5117833;27;20092;-43
2023/10/24 01:12:56;;;;;;;;;;;;;;;;;;5124841;27;19903;-44
2023/10/24 01:15:22;;;;;;;;;;;;;;;;;;5121751;28;19919;-41
2023/10/24 01:17:49;;;;;;;;;;;;;;;;;;5124231;28;20251;-41
2023/10/24 01:20:15;;;;;;;;;;;;;;;;;;5122282;27;19907;-43
2023/10/24 01:22:44;;;;;;;;;;;;;;;;;;5124783;28;20214;-51
2023/10/24 01:25:11;;;;;;;;;;;;;;;;;;5124763;28;19943;-40
2023/10/24 01:27:37;;;;;;;;;;;;;;;;;;5125074;28;19900;-43
2023/10/24 01:30:03;;;;;;;;;;;;;;;;;;5125096;28;20072;-37
2023/10/24 01:32:30;;;;;;;8.05;3.70;;;;;;;;;;5124044;28;19907;-41
2023/10/24 01:34:57;;;;;;;5.18;3.80;;;;;;;;;;5124584;28;20067;-39
2023/10/24 01:37:24;;;;;;;9.40;4.75;;;;;;;;;;5125222;28;20095;-44
2023/10/24 01:39:51;;;;;;;6.50;3.70;;;;;;;;;;5125514;28;20195;-41
2023/10/24 01:42:18;;;;;;;7.22;3.60;;;;;;;;;;5125116;28;20319;-44
2023/10/24 01:44:47;;;;;;;4.95;4.13;;;;;;;;;;5107062;28;20304;-54
2023/10/24 01:47:15;;;;;;;7.05;6.10;;;;;;;;;;5124844;28;20065;-38
2023/10/24 01:49:41;;;;;;;5.22;4.70;;;;;;;;;;5125155;27;20020;-40
2023/10/24 01:52:08;;;;;;;6.50;4.10;;;;;;;;;;5124929;28;20228;-45
2023/10/24 01:54:35;;;;;;;4.65;3.53;;;;;;;;;;5125177;28;20027;-40
2023/10/24 01:57:06;;;;;;;6.72;3.22;;;;;;;;;;5123701;27;20031;-45
2023/10/24 01:59:33;;;;;;;5.68;3.33;;;;;;;;;;5118478;27;20027;-40
2023/10/24 02:02:01;;;;;;;4.60;2.58;;;;;;;;;;5123422;28;20051;-44
2023/10/24 02:04:46;;;;;;;6.30;2.90;;;;;;;;;;5087433;28;20063;-40
2023/10/24 02:07:13;;;;;;;5.10;2.83;;;;;;;;;;5110360;28;20088;-39
2023/10/24 02:09:42;;;;;;;6.82;3.15;;;;;;;;;;5104240;28;20185;-43
2023/10/24 02:12:08;;;;;;;3.85;2.58;;;;;;;;;;5120432;28;20023;-39
2023/10/24 02:14:35;;;;;;;5.77;2.87;;;;;;;;;;5125079;28;20249;-47
2023/10/24 02:17:01;;;;;;;;;;;;;;;;;;5112961;28;20208;-38
2023/10/24 02:19:29;;;;;;;6.60;2.75;;;;;;;;;;5120454;28;20107;-46
2023/10/24 02:21:55;;;;;;;5.80;2.60;;;;;;;;;;5124185;28;20056;-39
2023/10/24 02:24:25;;;;;;;4.90;2.90;;;;;;;;;;5124958;28;19907;-39
2023/10/24 02:26:51;;;;;;;;;;;;;;;;;;5101022;28;19923;-41
2023/10/24 02:29:17;;;;;;;;;;;;;;;;;;5111048;28;19915;-43
2023/10/24 02:31:44;;;;;;;;;;;;;;;;;;5114502;28;19931;-43
2023/10/24 02:34:10;;;;;;;;;;;;;;;;;;5111459;28;24097;-50
2023/10/24 02:36:36;;;;;;;;;;;;;;;;;;5122691;28;19910;-42
2023/10/24 02:39:02;;;;;;;;;;;;;;;;;;5124631;28;19911;-52
2023/10/24 02:41:28;;;;;;;;;;;;;;;;;;5124287;28;24063;-48
2023/10/24 02:43:55;;;;;;;;;;;;;;;;;;5124309;28;19914;-48
2023/10/24 02:46:21;;;;;;;;;;;;;;;;;;5124206;28;19977;-47
2023/10/24 02:48:47;;;;;;;;;;;;;;;;;;5124016;28;25127;-49
2023/10/24 02:51:13;;;;;;;;;;;;;;;;;;5123987;28;24089;-44
2023/10/24 02:53:40;;;;;;;;;;;;;;;;;;5119875;28;24087;-51
2023/10/24 02:56:06;;;;;;;;;;;;;;;;;;5115643;28;20011;-41
2023/10/24 02:58:32;;;;;;;;;;;;;;;;;;5124373;28;20176;-41
2023/10/24 03:00:58;;;;;;;;;;;;;;;;;;5123677;28;19908;-46
2023/10/24 03:03:25;;;;;;;;;;;;;;;;;;5124031;28;19939;-42
2023/10/24 03:05:51;;;;;;;;;;;;;;;;;;5123547;28;19903;-39
2023/10/24 03:08:17;;;;;;;;;;;;;;;;;;5121645;28;19980;-43
2023/10/24 03:10:43;;;;;;;;;;;;;;;;;;5123006;28;20121;-43
2023/10/24 03:13:09;;;;;;;;;;;;;;;;;;5103465;28;19908;-45
2023/10/24 03:15:36;;;;;;;;;;;;;;;;;;5103343;28;19931;-41
2023/10/24 03:18:02;;;;;;;;;;;;;;;;;;5112300;28;20095;-43
2023/10/24 03:20:28;;;;;;;;;;;;;;;;;;5103157;28;19908;-41
2023/10/24 03:22:54;;;;;;;;;;;;;;;;;;5118903;28;19915;-46
2023/10/24 03:25:21;;;;;;;;;;;;;;;;;;5116588;28;19911;-43
2023/10/24 03:27:47;;;;;;;;;;;;;;;;;;5114663;28;19910;-42
2023/10/24 03:30:13;;;;;;;;;;;;;;;;;;5119554;28;19904;-39
2023/10/24 03:32:40;;;;;;;;;;;;;;;;;;5103188;28;25113;-43
2023/10/24 03:35:06;;;;;;;;;;;;;;;;;;5102816;28;19908;-43
2023/10/24 03:37:32;;;;;;;;;;;;;;;;;;5111727;28;19911;-39
2023/10/24 03:39:59;;;;;;;;;;;;;;;;;;5127328;28;19904;-42
2023/10/24 03:42:25;;;;;;;;;;;;;;;;;;5126804;28;20031;-39
2023/10/24 03:44:51;;;;;;;;;;;;;;;;;;5127099;28;20040;-39
2023/10/24 03:47:17;;;;;;;;;;;;;;;;;;5127290;28;19910;-39
2023/10/24 03:49:46;;;;;;;;;;;;;;;;;;5127232;28;19982;-47
2023/10/24 03:52:14;;;;;;;;;;;;;;;;;;5127352;28;19904;-39
2023/10/24 03:54:40;;;;;;;;;;;;;;;;;;5127532;28;19935;-45
2023/10/24 03:57:07;;;;;;;;;;;;;;;;;;5126932;28;19904;-46
2023/10/24 03:59:33;;;;;;;;;;;;;;;;;;5127116;28;19976;-44
2023/10/24 04:02:00;;;;;;;;;;;;;;;;;;5125562;28;20192;-45
2023/10/24 04:04:26;;;;;;;;;;;;;;;;;;5127240;28;19947;-41
2023/10/24 04:06:52;;;;;;;;;;;;;;;;;;5127124;28;20069;-42
2023/10/24 04:09:21;;;;;;;;;;;;;;;;;;5127620;28;19904;-43
2023/10/24 04:11:48;;;;;;;;;;;;;;;;;;5119213;28;19941;-40
2023/10/24 04:14:14;;;;;;;;;;;;;;;;;;5107665;28;20164;-41
2023/10/24 04:16:40;;;;;;;;;;;;;;;;;;5106530;28;19900;-46
2023/10/24 04:19:06;;;;;;;;;;;;;;;;;;5106590;28;19908;-42
2023/10/24 04:21:35;;;;;;;;;;;;;;;;;;5106498;28;19967;-38
2023/10/24 04:24:01;;;;;;;;;;;;;;;;;;5106458;28;19941;-44
2023/10/24 04:26:27;;;;;;;;;;;;;;;;;;5128675;27;20104;-42
2023/10/24 04:28:53;;;;;;;;;;;;;;;;;;5106580;28;19915;-42
2023/10/24 04:31:20;;;;;;;;;;;;;;;;;;5105745;28;24090;-44
2023/10/24 04:33:46;;;;;;;;;;;;;;;;;;5105764;28;19939;-42
2023/10/24 04:36:12;;;;;;;;;;;;;;;;;;5105467;28;19900;-39
2023/10/24 04:38:38;;;;;;;;;;;;;;;;;;5105617;28;19949;-39
2023/10/24 04:41:05;;;;;;;;;;;;;;;;;;5105895;28;24087;-40
2023/10/24 04:43:31;;;;;;;;;;;;;;;;;;5105926;28;24110;-41
2023/10/24 04:45:57;;;;;;;;;;;;;;;;;;5105772;28;19904;-42
2023/10/24 04:48:23;;;;;;;;;;;;;;;;;;5105558;28;19957;-39
2023/10/24 04:50:50;;;;;;;;;;;;;;;;;;5104617;28;19945;-49
2023/10/24 04:53:18;;;;;;;;;;;;;;;;;;5105358;28;24117;-44
2023/10/24 04:55:44;;;;;;;;;;;;;;;;;;5105253;28;19915;-40
2023/10/24 04:58:10;;;;;;;;;;;;;;;;;;5105679;28;19911;-44
2023/10/24 05:00:37;;;;;;;;;;;;;;;;;;5109510;28;20259;-38
2023/10/24 05:03:03;;;;;;;;;;;;;;;;;;5122208;28;24066;-42
2023/10/24 05:05:29;;;;;;;;;;;;;;;;;;5105160;28;19930;-38
2023/10/24 05:07:55;;;;;;;;;;;;;;;;;;5104818;28;20022;-43
2023/10/24 05:10:21;;;;;;;;;;;;;;;;;;5086911;28;24109;-45
2023/10/24 05:12:48;;;;;;;;;;;;;;;;;;5105149;28;19907;-42
2023/10/24 05:15:15;;;;;;;;;;;;;;;;;;5104729;28;20219;-42
2023/10/24 05:17:42;;;;;;;;;;;;;;;;;;5105678;28;19910;-39
2023/10/24 05:20:09;;;;;;;;;;;;;;;;;;5125519;28;19904;-39
2023/10/24 05:22:35;;;;;;;;;;;;;;;;;;5125013;28;19962;-39
2023/10/24 05:25:01;;;;;;;;;;;;;;;;;;5124921;28;19907;-41
2023/10/24 05:27:28;;;;;;;;;;;;;;;;;;5124995;28;24090;-39
2023/10/24 05:29:54;;;;;;;;;;;;;;;;;;5125613;28;19908;-46
2023/10/24 05:32:21;;;;;;;;;;;;;;;;;;5125078;28;19903;-40
2023/10/24 05:34:47;;;;;;;;;;;;;;;;;;5125844;28;19915;-46
2023/10/24 05:37:13;;;;;;;;;;;;;;;;;;5124966;28;19903;-39
2023/10/24 05:39:39;;;;;;;;;;;;;;;;;;5124764;28;20250;-42
2023/10/24 05:42:05;;;;;;;;;;;;;;;;;;5124957;28;19956;-42
2023/10/24 05:44:34;;;;;;;;;;;;;;;;;;5124929;28;19975;-39
2023/10/24 05:47:02;;;;;;;;;;;;;;;;;;5124828;28;25088;-38
2023/10/24 05:49:29;;;;;;;;;;;;;;;;;;5124990;28;19911;-41
2023/10/24 05:51:55;;;;;;;;;;;;;;;;;;5125150;28;19910;-46
2023/10/24 05:54:21;;;;;;;;;;;;;;;;;;5124537;28;19912;-44
2023/10/24 05:56:48;;;;;;;;;;;;;;;;;;5124902;28;19903;-43
2023/10/24 05:59:15;;;;;;;;;;;;;;;;;;5124966;28;19904;-42
2023/10/24 06:01:41;;;;;;;;;;;;;;;;;;5124223;28;19908;-40
2023/10/24 06:04:07;;;;;;;;;;;;;;;;;;5124313;28;19935;-46
2023/10/24 06:06:34;;;;;;;;;;;;;;;;;;5124165;28;24144;-39
2023/10/24 06:09:00;;;;;;;;;;;;;;;;;;5124589;28;19908;-41
2023/10/24 06:11:26;;;;;;;;;;;;;;;;;;5124027;28;19900;-41
2023/10/24 06:13:52;;;;;;;;;;;;;;;;;;5124586;28;19904;-43
2023/10/24 06:16:18;;;;;;;;;;;;;;;;;;5123991;28;19952;-42
2023/10/24 06:18:47;;;;;;;;;;;;;;;;;;5123309;28;19925;-43
2023/10/24 06:21:13;;;;;;;;;;;;;;;;;;5124454;28;19904;-45
2023/10/24 06:23:39;;;;;;;;;;;;;;;;;;5124265;28;19915;-41
2023/10/24 06:26:05;;;;;;;;;;;;;;;;;;5124152;28;20206;-40
2023/10/24 06:28:31;;;;;;;;;;;;;;;;;;5124567;28;19912;-41
2023/10/24 06:30:58;;;;;;;;;;;;;;;;;;5123921;28;19971;-44
2023/10/24 06:33:26;;;;;;;;;;;;;;;;;;5124259;28;19911;-43
2023/10/24 06:35:53;;;;;;;;;;;;;;;;;;5124262;28;24937;-40
2023/10/24 06:38:21;;;;;;;;;;;;;;;;;;5123970;28;19907;-44
2023/10/24 06:40:47;;;;;;;;;;;;;;;;;;5124080;28;19900;-39
2023/10/24 06:43:15;;;;;;;;;;;;;;;;;;5124595;28;19939;-37
2023/10/24 06:45:45;;;;;;;;;;;;;;;;;;5123952;28;19903;-39
2023/10/24 06:48:11;;;;;;;;;;;;;;;;;;5124247;28;19971;-45
2023/10/24 06:50:40;;;;;;;;;;;;;;;;;;5123981;28;20186;-48
2023/10/24 06:53:06;;;;;;;;;;;;;;;;;;5123967;28;19908;-45
2023/10/24 06:55:33;;;;;;;;;;;;;;;;;;5123699;28;19911;-38
2023/10/24 06:58:06;;;;;;;;;;;;;;;;;;5123759;28;24065;-39
2023/10/24 07:00:32;;;;;;;;;;;;;;;;;;5123670;28;19914;-39
2023/10/24 07:02:58;;;;;;;;;;;;;;;;;;5123296;28;24072;-45
2023/10/24 07:05:25;;;;;;;;;;;;;;;;;;5123769;28;19946;-40
2023/10/24 07:07:51;;;;;;;;;;;;;;;;;;5123928;28;19904;-40
2023/10/24 07:10:17;;;;;;;;;;;;;;;;;;5123473;28;24102;-45
2023/10/24 07:12:43;;;;;;;;;;;;;;;;;;5124277;28;19899;-40
2023/10/24 07:15:09;;;;;;;;;;;;;;;;;;5127593;28;20132;-41
2023/10/24 07:17:36;;;;;;;;;;;;;;;;;;5127284;28;24089;-38
2023/10/24 07:20:02;;;;;;;;;;;;;;;;;;5127823;28;20133;-40
2023/10/24 07:22:28;;;;;;;;;;;;;;;;;;5127896;28;19911;-36
2023/10/24 07:24:54;;;;;;;;;;;;;;;;;;5128005;28;19904;-41
2023/10/24 07:27:20;;;;;;;;;;;;;;;;;;5127903;28;19911;-47
2023/10/24 07:29:47;;;;;;;;;;;;;;;;;;5127847;28;20018;-49
2023/10/24 07:32:19;;;;;;;;;;;;;;;;;;5127436;28;19899;-37
2023/10/24 07:34:48;;;;;;;7.35;1.90;;;;;;;;;;5127827;28;24109;-38
2023/10/24 07:37:15;;;;;;;5.68;1.70;;;;;;;;;;5127360;28;20023;-44
2023/10/24 07:39:42;;;;;;;4.18;1.70;;;;;;;;;;5127077;28;20027;-42
2023/10/24 07:42:09;;;;;;;6.18;1.65;;;;;;;;;;5127566;28;20111;-38
2023/10/24 07:44:35;;;;;;;7.10;1.77;;;;;;;;;;5127787;28;20257;-38
2023/10/24 07:47:02;;;;;;;11.15;1.77;;;;;;;;;;5127144;28;20046;-42
2023/10/24 07:49:30;;;;;;;62.50;7.25;;;;;;;;;;5127210;28;20400;-39
2023/10/24 07:51:58;;;;;;;73.88;7.32;;;;;;;;;;5127146;28;20327;-39
2023/10/24 07:54:25;;;;;;;86.93;7.82;;;;;;;;;;5127301;28;20369;-39
2023/10/24 07:56:52;;;;;;;111.07;11.30;;;;;;;;;;5127115;28;20051;-40
2023/10/24 07:59:18;;;;;;;100.60;10.18;;;;;;;;;;5126843;28;20094;-43
2023/10/24 08:01:45;;;;;;;91.68;9.57;;;;;;;;;;5126751;28;20054;-43
2023/10/24 08:04:12;;;;;;;93.32;9.05;;;;;;;;;;5127204;28;20023;-45
2023/10/24 08:06:38;;;;;;;87.53;8.75;;;;;;;;;;5126760;28;20030;-39
2023/10/24 08:09:07;;;;;;;73.82;8.35;;;;;;;;;;5127044;28;20023;-40
2023/10/24 08:11:36;;;;;;;41.78;4.50;;;;;;;;;;5126827;28;20064;-46
2023/10/24 08:14:03;;;;;;;33.85;4.25;;;;;;;;;;5127184;28;20035;-38
2023/10/24 08:16:29;;;;;;;54.38;7.32;;;;;;;;;;5126601;28;20028;-41
2023/10/24 08:18:56;;;;;;;86.22;8.90;;;;;;;;;;5126967;28;20020;-42
2023/10/24 08:21:25;;;;;;;88.95;8.95;;;;;;;;;;5126685;28;20028;-46
2023/10/24 08:23:51;;;;;;;79.03;8.70;;;;;;;;;;5126629;28;20023;-39
2023/10/24 08:26:19;;;;;;;68.05;6.40;;;;;;;;;;5125605;28;20110;-40
2023/10/24 08:28:46;;;;;;;40.67;5.15;;;;;;;;;;5126648;28;20329;-44
2023/10/24 08:31:13;;;;;;;27.23;3.83;;;;;;;;;;5126359;28;20319;-46
2023/10/24 08:33:40;;;;;;;26.83;3.30;;;;;;;;;;5126596;28;20035;-44
2023/10/24 08:36:06;;;;;;;25.30;3.17;;;;;;;;;;5126360;28;20034;-40
2023/10/24 08:38:33;;;;;;;18.73;3.50;;;;;;;;;;5126527;28;20208;-42
2023/10/24 08:41:03;;;;;;;13.50;2.72;;;;;;;;;;5126184;28;20322;-38
2023/10/24 08:43:32;;;;;;;15.32;2.90;;;;;;;;;;5126431;28;20329;-45
2023/10/24 08:45:59;;;;;;;14.23;2.50;;;;;;;;;;5125977;28;20023;-38
2023/10/24 08:48:26;;;;;;;7.22;2.30;;;;;;;;;;5126246;28;20325;-44
2023/10/24 08:50:52;;;;;;;8.57;2.03;;;;;;;;;;5126065;28;20051;-38
2023/10/24 08:53:19;;;;;;;6.80;2.08;;;;;;;;;;5126012;28;20286;-44
2023/10/24 08:55:51;;;;;;;5.93;2.20;;;;;;;;;;5125894;28;20373;-41
2023/10/24 08:58:19;;;;;;;12.07;2.60;;;;;;;;;;5125995;28;20335;-43
2023/10/24 09:00:49;;;;;;;60.95;6.00;;;;;;;;;;5125405;28;20037;-44
2023/10/24 09:03:20;;;;;;;47.38;4.68;;;;;;;;;;5125850;28;20047;-48
2023/10/24 09:05:47;;;;;;;56.55;6.40;;;;;;;;;;5125765;28;20039;-43
2023/10/24 09:08:17;;;;;;;70.57;8.38;;;;;;;;;;5125526;28;20027;-45
2023/10/24 09:10:43;;;;;;;58.75;7.55;;;;;;;;;;5125676;28;20026;-41
2023/10/24 09:13:10;;;;;;;50.45;6.28;;;;;;;;;;5125548;28;20035;-38
2023/10/24 09:15:39;;;;;;;36.45;4.85;;;;;;;;;;5125670;28;20346;-48
2023/10/24 09:18:06;;;;;;;46.33;5.57;;;;;;;;;;5125467;28;20048;-41
2023/10/24 09:20:36;;;;;;;38.08;4.85;;;;;;;;;;5125316;28;20034;-43
2023/10/24 09:23:06;;;;;;;39.55;5.05;;;;;;;;;;5125340;28;20054;-46
2023/10/24 09:25:33;;;;;;;48.55;5.97;;;;;;;;;;5125206;28;20031;-43
2023/10/24 09:28:16;;;;;;;44.35;5.43;;;;;;;;;;5125211;28;20035;-41
2023/10/24 09:30:43;;;;;;;49.20;6.18;;;;;;;;;;5125183;28;20111;-44
2023/10/24 09:33:12;;;;;;;26.02;4.00;;;;;;;;;;5125028;28;20035;-41
2023/10/24 09:35:39;;;;;;;27.35;3.47;;;;;;;;;;5124656;28;20015;-41
2023/10/24 09:38:07;;;;;;;18.60;3.30;;;;;;;;;;5125341;28;20031;-41
2023/10/24 09:40:37;;;;;;;12.23;3.05;;;;;;;;;;5125078;28;20019;-42
2023/10/24 09:43:05;;;;;;;7.68;2.67;;;;;;;;;;5124986;28;20226;-38
2023/10/24 09:45:34;;;;;;;7.72;2.78;;;;;;;;;;5125118;28;20223;-43
2023/10/24 09:48:03;;;;;;;15.88;2.70;;;;;;;;;;5124887;28;20323;-48
2023/10/24 09:50:30;;;;;;;8.05;2.83;;;;;;;;;;5124749;28;20077;-45
2023/10/24 09:52:57;;;;;;;12.73;2.58;;;;;;;;;;5124972;28;20040;-40
2023/10/24 09:55:26;;;;;;;9.18;2.90;;;;;;;;;;5124735;28;20034;-41
2023/10/24 09:57:56;;;;;;;4.65;2.38;;;;;;;;;;5124689;28;20024;-39
2023/10/24 10:00:22;;;;;;;6.53;2.40;;;;;;;;;;5123598;28;20046;-45
2023/10/24 10:02:52;;;;;;;4.40;2.50;;;;;;;;;;5123449;28;20046;-41
2023/10/24 10:05:19;;;;;;;8.13;2.60;;;;;;;;;;5124674;28;20051;-43
2023/10/24 10:07:49;;;;;;;3.70;2.72;;;;;;;;;;5124685;28;20038;-45
2023/10/24 10:10:16;;;;;;;5.10;2.75;;;;;;;;;;5113926;28;20027;-43
2023/10/24 10:12:43;;;;;;;5.05;2.60;;;;;;;;;;5115220;28;20234;-46
2023/10/24 10:15:10;;;;;;;5.90;2.75;;;;;;;;;;5124453;28;20040;-45
2023/10/24 10:17:44;;;;;;;8.63;2.47;;;;;;;;;;5124248;28;20030;-44
2023/10/24 10:20:14;;;;;;;5.85;2.58;;;;;;;;;;5123438;28;20091;-40
2023/10/24 10:22:50;;;;;;;3.80;2.50;;;;;;;;;;5104004;28;20030;-40
2023/10/24 10:25:19;;;;;;;5.45;2.55;;;;;;;;;;5104093;28;20036;-39
2023/10/24 10:28:04;;;;;;;6.88;2.40;;;;;;;;;;5103990;28;20032;-42
2023/10/24 10:30:39;;;;;;;5.00;2.47;;;;;;;;;;5089328;28;20103;-40
2023/10/24 10:33:15;;;;;;;6.28;2.55;;;;;;;;;;5123819;28;20073;-46
2023/10/24 10:35:49;;;;;;;4.00;2.30;;;;;;;;;;5122885;28;20023;-42
2023/10/24 10:38:25;;;;;;;5.90;2.55;;;;;;;;;;5115435;28;20027;-42
2023/10/24 10:40:51;;;;;;;4.90;2.45;;;;;;;;;;5097130;28;20059;-44
2023/10/24 10:43:31;;;;;;;4.53;2.60;;;;;;;;;;5121170;28;20307;-47
2023/10/24 10:46:17;;;;;;;9.15;2.90;;;;;;;;;;5117353;28;20040;-42
2023/10/24 10:48:48;;;;;;;9.18;3.30;;;;;;;;;;5124576;28;20087;-44
2023/10/24 10:51:25;;;;;;;4.90;2.63;;;;;;;;;;5107469;28;20032;-43
2023/10/24 10:54:02;;;;;;;4.95;2.70;;;;;;;;;;5128128;28;20020;-42
2023/10/24 10:56:33;;;;;;;5.28;2.65;;;;;;;;;;5127743;28;20051;-40
2023/10/24 10:59:09;;;;;;;3.67;2.47;;;;;;;;;;5126060;28;20035;-41
2023/10/24 11:01:55;;;;;;;13.70;4.13;;;;;;;;;;5107225;28;20036;-40
2023/10/24 11:04:23;;;;;;;9.48;3.38;;;;;;;;;;5127444;28;20065;-44
2023/10/24 11:07:03;;;;;;;6.75;4.10;;;;;;;;;;5128259;28;20028;-36
2023/10/24 11:09:37;;;;;;;5.78;4.30;;;;;;;;;;5128840;28;20091;-41
2023/10/24 11:12:22;;;;;;;9.02;6.18;;;;;;;;;;5127703;28;20064;-41
2023/10/24 11:15:07;;;;;;;9.43;8.23;;;;;;;;;;5128406;28;20038;-36
2023/10/24 11:17:34;;;;;;;5.63;5.07;;;;;;;;;;5127872;28;20023;-37
2023/10/24 11:20:02;;;;;;;4.97;4.47;;;;;;;;;;5127855;28;20219;-37
2023/10/24 11:22:31;;;;;;;9.77;5.68;;;;;;;;;;5128002;28;20011;-40
2023/10/24 11:24:58;;;;;;;6.55;4.50;;;;;;;;;;5128182;28;20228;-46
2023/10/24 11:27:25;;;;;;;4.72;3.45;;;;;;;;;;5126783;28;20016;-42
2023/10/24 11:29:52;;;;;;;4.47;2.70;;;;;;;;;;5125982;28;20019;-38
2023/10/24 11:32:18;;;;;;;9.90;9.00;;;;;;;;;;5125819;28;20031;-43
2023/10/24 11:34:45;;;;;;;9.38;5.78;;;;;;;;;;5125685;27;20099;-40
2023/10/24 11:37:12;;;;;;;14.70;6.95;;;;;;;;;;5125751;28;20078;-40
2023/10/24 11:39:42;;;;;;;12.10;6.35;;;;;;;;;;5126012;28;20047;-35
2023/10/24 11:42:09;;;;;;;11.00;5.20;;;;;;;;;;5125817;28;20065;-37
2023/10/24 11:44:35;;;;;;;7.85;5.20;;;;;;;;;;5126287;28;20023;-40
2023/10/24 11:47:04;;;;;;;7.65;4.55;;;;;;;;;;5126213;28;20031;-39
2023/10/24 11:49:35;;;;;;;6.15;4.03;;;;;;;;;;5127109;28;20072;-36
2023/10/24 11:52:02;;;;;;;5.20;3.33;;;;;;;;;;5127213;28;20036;-37
2023/10/24 11:54:28;;;;;;;4.53;3.85;;;;;;;;;;5127517;28;20035;-36
2023/10/24 11:56:55;;;;;;;4.43;2.92;;;;;;;;;;5125705;28;20245;-38
2023/10/24 11:59:22;;;;;;;5.50;3.08;;;;;;;;;;5125830;28;20046;-41
2023/10/24 12:01:48;;;;;;;4.68;2.72;;;;;;;;;;5125140;28;20036;-41
2023/10/24 12:04:20;;;;;;;4.95;2.90;;;;;;;;;;5125803;28;20047;-43
2023/10/24 12:06:47;;;;;;;6.20;2.72;;;;;;;;;;5125668;28;20016;-38
2023/10/24 12:09:14;;;;;;;7.43;2.70;;;;;;;;;;5125655;28;20235;-39
2023/10/24 12:11:41;;;;;;;5.30;2.25;;;;;;;;;;5126240;28;20088;-41
2023/10/24 12:14:08;;;;;;;4.88;2.40;;;;;;;;;;5127335;28;20375;-42
2023/10/24 12:16:39;;;;;;;5.32;2.40;;;;;;;;;;5126671;28;20032;-41
2023/10/24 12:19:06;;;;;;;2.93;2.00;;;;;;;;;;5127129;28;20032;-42
2023/10/24 12:21:32;;;;;;;3.75;2.35;;;;;;;;;;5126857;28;20307;-50
2023/10/24 12:24:01;;;;;;;4.03;2.25;;;;;;;;;;5126827;28;20031;-45
2023/10/24 12:26:28;;;;;;;4.57;2.17;;;;;;;;;;5126878;28;20077;-45
2023/10/24 12:28:54;;;;;;;4.00;2.20;;;;;;;;;;5126954;28;20030;-51
2023/10/24 12:31:21;;;;;;;2.72;2.20;;;;;;;;;;5126373;28;20290;-55
2023/10/24 12:33:48;;;;;;;6.03;1.95;;;;;;;;;;5125461;28;20364;-47
2023/10/24 12:36:20;;;;;;;3.33;1.90;;;;;;;;;;5126290;28;20359;-51
2023/10/24 12:38:49;;;;;;;4.15;2.05;;;;;;;;;;5124949;28;20023;-38
2023/10/24 12:41:15;;;;;;;2.63;1.88;;;;;;;;;;5126537;28;20015;-42
2023/10/24 12:43:44;;;;;;;6.88;2.22;;;;;;;;;;5126544;28;20065;-39
2023/10/24 12:46:13;;;;;;;4.22;2.20;;;;;;;;;;5126106;28;20027;-37
2023/10/24 12:48:40;;;;;;;16.90;2.50;;;;;;;;;;5125994;28;20027;-45
2023/10/24 12:51:07;;;;;;;3.13;1.90;;;;;;;;;;5125458;28;20026;-49
2023/10/24 12:53:35;;;;;;;4.03;2.10;;;;;;;;;;5126314;28;20107;-46
2023/10/24 12:56:01;;;;;;;5.00;2.08;;;;;;;;;;5126308;28;20031;-50
2023/10/24 12:58:28;;;;;;;6.90;1.90;;;;;;;;;;5126403;28;20023;-48
2023/10/24 13:00:55;;;;;;;4.50;1.90;;;;;;;;;;5125159;28;20277;-54
2023/10/24 13:03:22;;;;;;;5.57;2.25;;;;;;;;;;5124623;28;20262;-50
2023/10/24 13:05:49;;;;;;;5.57;2.28;;;;;;;;;;5125453;28;20065;-45
2023/10/24 13:08:15;;;;;;;5.13;2.08;;;;;;;;;;5124971;28;20039;-49
2023/10/24 13:10:42;;;;;;;7.72;1.85;;;;;;;;;;5125330;28;20016;-47
2023/10/24 13:13:09;;;;;;;11.75;1.98;;;;;;;;;;5125914;28;20300;-45
2023/10/24 13:15:36;;;;;;;3.83;2.13;;;;;;;;;;5125488;28;20031;-46
2023/10/24 13:18:02;;;;;;;6.40;2.08;;;;;;;;;;5125485;28;20035;-42
2023/10/24 13:20:29;;;;;;;7.38;2.00;;;;;;;;;;5125847;28;20023;-42
2023/10/24 13:22:57;;;;;;;9.75;2.30;;;;;;;;;;5125318;28;20023;-51
2023/10/24 13:25:23;;;;;;;3.80;1.85;;;;;;;;;;5125678;28;20019;-43
2023/10/24 13:27:51;;;;;;;5.78;2.20;;;;;;;;;;5125450;27;20208;-44
2023/10/24 13:30:17;;;;;;;9.73;2.10;;;;;;;;;;5125644;28;20324;-48
2023/10/24 13:32:44;;;;;;;8.38;2.10;;;;;;;;;;5125053;27;20046;-46
2023/10/24 13:35:11;;;;;;;5.68;2.33;;;;;;;;;;5125214;28;20043;-50
2023/10/24 13:37:37;;;;;;;7.72;2.30;;;;;;;;;;5125209;28;20020;-50
2023/10/24 13:40:04;;;;;;;8.80;2.17;;;;;;;;;;5125532;28;20019;-49
2023/10/24 13:42:31;;;;;;;12.50;2.53;;;;;;;;;;5125469;28;20319;-47
2023/10/24 13:45:00;;;;;;;13.55;2.33;;;;;;;;;;5125619;28;20036;-47
2023/10/24 13:47:27;;;;;;;16.10;2.90;;;;;;;;;;5125602;28;20024;-43
2023/10/24 13:49:53;;;;;;;101.40;7.65;;;;;;;;;;5125141;28;20331;-52
2023/10/24 13:52:20;;;;;;;21.30;3.83;;;;;;;;;;5125004;28;20394;-47
2023/10/24 13:54:47;;;;;;;19.50;4.47;;;;;;;;;;5125603;28;20139;-42
2023/10/24 13:57:13;;;;;;;15.15;3.40;;;;;;;;;;5124924;28;20065;-45
2023/10/24 13:59:41;;;;;;;12.80;2.80;;;;;;;;;;5125074;28;20039;-48
2023/10/24 14:02:08;;;;;;;14.98;3.10;;;;;;;;;;5124925;28;20031;-46
2023/10/24 14:04:35;;;;;;;12.63;3.08;;;;;;;;;;5125181;28;20016;-47
2023/10/24 14:07:02;;;;;;;11.63;3.30;;;;;;;;;;5124850;28;20200;-46
2023/10/24 14:09:28;;;;;;;10.50;3.15;;;;;;;;;;5125621;28;20035;-52
2023/10/24 14:11:55;;;;;;;8.15;3.08;;;;;;;;;;5124719;28;20319;-46
2023/10/24 14:14:23;;;;;;;12.15;2.50;;;;;;;;;;5124947;28;20054;-48
2023/10/24 14:16:50;;;;;;;4.45;2.67;;;;;;;;;;5124466;28;20035;-42
2023/10/24 14:19:16;;;;;;;11.38;3.00;;;;;;;;;;5124204;28;20021;-43
2023/10/24 14:21:43;;;;;;;23.67;3.78;;;;;;;;;;5124377;28;20035;-46
2023/10/24 14:24:10;;;;;;;26.67;3.90;;;;;;;;;;5124430;28;20059;-42
2023/10/24 14:26:37;;;;;;;19.38;5.07;;;;;;;;;;5124823;28;20040;-44
2023/10/24 14:29:04;;;;;;;12.68;4.50;;;;;;;;;;5125071;28;20046;-46
2023/10/24 14:31:31;;;;;;;16.70;4.05;;;;;;;;;;5124849;28;20249;-45
2023/10/24 14:33:59;;;;;;;13.35;3.80;;;;;;;;;;5124492;28;20054;-45
2023/10/24 14:36:26;;;;;;;10.50;3.50;;;;;;;;;;5124304;28;20035;-43
2023/10/24 14:38:54;;;;;;;9.13;3.60;;;;;;;;;;5124694;28;20035;-46
2023/10/24 14:41:21;;;;;;;15.55;4.20;;;;;;;;;;5124290;28;20056;-44
2023/10/24 14:43:47;;;;;;;7.93;4.10;;;;;;;;;;5124555;28;20032;-46
2023/10/24 14:46:14;;;;;;;25.13;7.82;;;;;;;;;;5124592;28;20028;-43
2023/10/24 14:48:41;;;;;;;11.35;4.90;;;;;;;;;;5124621;28;20326;-44
2023/10/24 14:51:08;;;;;;;8.90;4.28;;;;;;;;;;5124568;28;20094;-48
2023/10/24 14:53:34;;;;;;;14.23;4.40;;;;;;;;;;5124394;28;20027;-51
2023/10/24 14:56:01;;;;;;;12.52;4.15;;;;;;;;;;5123833;28;20024;-44
2023/10/24 14:58:29;;;;;;;11.25;3.75;;;;;;;;;;5124380;28;20051;-42
2023/10/24 15:00:55;;;;;;;7.32;3.80;;;;;;;;;;5123786;28;20046;-44
2023/10/24 15:03:22;;;;;;;6.55;4.03;;;;;;;;;;5124021;28;20091;-47
2023/10/24 15:05:48;;;;;;;6.90;4.25;;;;;;;;;;5124014;28;20031;-46
2023/10/24 15:08:16;;;;;;;11.43;5.30;;;;;;;;;;5123989;28;20027;-43
2023/10/24 15:10:48;;;;;;;11.75;5.47;;;;;;;;;;5123983;28;20024;-45
2023/10/24 15:13:14;;;;;;;11.18;5.03;;;;;;;;;;5124093;28;20035;-48
2023/10/24 15:15:41;;;;;;;18.92;5.10;;;;;;;;;;5123805;28;20059;-48
2023/10/24 15:18:08;;;;;;;21.98;5.43;;;;;;;;;;5123937;28;20300;-46
2023/10/24 15:20:37;;;;;;;16.75;5.10;;;;;;;;;;5123532;28;20090;-43
2023/10/24 15:23:03;;;;;;;18.42;6.00;;;;;;;;;;5123871;28;20028;-42
2023/10/24 15:25:33;;;;;;;12.57;6.35;;;;;;;;;;5123963;28;20058;-44